Time;durP1;ratioP1;P1;durP2;ratioP2;P2;SDS_P1;SDS_P2;PMS_P1;PMS_P2;Temp;Humidity;BMP_temperature;BMP_pressure;BME280_temperature;BME280_humidity;BME280_pressure;Samples;Min_cycle;Max_cycle;Signal;HPM_P1;HPM_P2
2023/03/03 00:01:42;;;;;;;15.32;9.23;;;;;;;;;;5056211;28;20075;-67
2023/03/03 00:04:09;;;;;;;12.88;8.65;;;;;;;;;;5057511;28;20052;-67
2023/03/03 00:06:35;;;;;;;12.77;7.97;;;;;;;;;;5054574;28;20493;-67
2023/03/03 00:09:02;;;;;;;9.60;6.68;;;;;;;;;;5054557;28;20041;-67
2023/03/03 00:11:28;;;;;;;13.95;7.75;;;;;;;;;;5054384;28;20049;-67
2023/03/03 00:13:55;;;;;;;11.15;6.88;;;;;;;;;;5054146;28;20063;-67
2023/03/03 00:16:22;;;;;;;9.98;6.72;;;;;;;;;;5054082;28;20481;-67
2023/03/03 00:18:49;;;;;;;7.68;6.50;;;;;;;;;;5054255;28;20472;-67
2023/03/03 00:21:24;;;;;;;8.52;6.00;;;;;;;;;;5054393;28;20067;-67
2023/03/03 00:23:51;;;;;;;9.27;6.80;;;;;;;;;;5054212;28;20132;-67
2023/03/03 00:26:25;;;;;;;8.32;5.90;;;;;;;;;;5054087;28;20055;-67
2023/03/03 00:28:53;;;;;;;7.78;5.60;;;;;;;;;;5054226;28;20045;-66
2023/03/03 00:31:22;;;;;;;5.97;5.20;;;;;;;;;;5053924;28;20056;-67
2023/03/03 00:33:53;;;;;;;6.75;5.63;;;;;;;;;;5053702;28;20045;-67
2023/03/03 00:36:36;;;;;;;7.13;5.85;;;;;;;;;;5053862;28;20519;-67
2023/03/03 00:39:23;;;;;;;7.78;5.55;;;;;;;;;;5053728;28;20060;-67
2023/03/03 00:41:49;;;;;;;9.18;5.90;;;;;;;;;;5053761;28;20053;-67
2023/03/03 00:44:28;;;;;;;6.55;5.90;;;;;;;;;;5053573;28;20503;-67
2023/03/03 00:46:55;;;;;;;8.68;5.97;;;;;;;;;;5053715;28;20057;-67
2023/03/03 00:49:24;;;;;;;9.13;5.32;;;;;;;;;;5053396;28;20079;-67
2023/03/03 00:51:51;;;;;;;6.20;5.63;;;;;;;;;;5053351;28;20059;-67
2023/03/03 00:54:17;;;;;;;7.75;4.95;;;;;;;;;;5053374;28;20045;-66
2023/03/03 00:56:44;;;;;;;7.55;5.25;;;;;;;;;;5053296;28;20505;-66
2023/03/03 00:59:10;;;;;;;7.60;4.88;;;;;;;;;;5053572;28;20408;-67
2023/03/03 01:01:37;;;;;;;5.10;4.57;;;;;;;;;;5053420;28;20128;-66
2023/03/03 01:04:03;;;;;;;6.82;4.80;;;;;;;;;;5053520;28;20060;-67
2023/03/03 01:06:29;;;;;;;4.85;4.43;;;;;;;;;;5053583;28;20154;-67
2023/03/03 01:08:56;;;;;;;5.93;5.32;;;;;;;;;;5053583;28;20059;-67
2023/03/03 01:11:24;;;;;;;7.55;5.25;;;;;;;;;;5053360;28;20079;-67
2023/03/03 01:13:51;;;;;;;7.55;5.10;;;;;;;;;;5052959;28;20136;-67
2023/03/03 01:16:18;;;;;;;6.65;5.07;;;;;;;;;;5052953;28;20060;-67
2023/03/03 01:18:44;;;;;;;5.30;4.80;;;;;;;;;;5051913;28;20443;-67
2023/03/03 01:21:11;;;;;;;5.90;4.75;;;;;;;;;;5053164;28;20053;-67
2023/03/03 01:23:37;;;;;;;5.07;4.57;;;;;;;;;;5052749;28;20049;-67
2023/03/03 01:26:04;;;;;;;7.35;4.95;;;;;;;;;;5052860;28;20084;-67
2023/03/03 01:28:31;;;;;;;7.97;5.47;;;;;;;;;;5052699;28;20493;-67
2023/03/03 01:31:02;;;;;;;7.72;5.15;;;;;;;;;;5052760;28;20052;-66
2023/03/03 01:33:30;;;;;;;14.77;10.02;;;;;;;;;;5052684;28;20455;-67
2023/03/03 01:35:56;;;;;;;76.55;46.40;;;;;;;;;;5052654;28;20080;-66
2023/03/03 01:38:23;;;;;;;28.02;16.95;;;;;;;;;;5052698;28;20045;-67
2023/03/03 01:40:53;;;;;;;7.70;6.22;;;;;;;;;;5052708;28;20037;-67
2023/03/03 01:43:19;;;;;;;7.13;5.65;;;;;;;;;;5052680;28;20049;-67
2023/03/03 01:45:46;;;;;;;35.38;23.30;;;;;;;;;;5052687;28;20042;-67
2023/03/03 01:48:12;;;;;;;12.35;8.52;;;;;;;;;;5052280;28;20075;-67
2023/03/03 01:50:42;;;;;;;9.73;6.97;;;;;;;;;;5052215;28;20575;-67
2023/03/03 01:53:11;;;;;;;10.15;7.25;;;;;;;;;;5052220;28;20080;-67
2023/03/03 01:55:39;;;;;;;51.75;31.48;;;;;;;;;;5052052;28;20045;-67
2023/03/03 01:58:12;;;;;;;43.42;25.60;;;;;;;;;;5052409;28;20053;-67
2023/03/03 02:00:41;;;;;;;33.92;20.02;;;;;;;;;;5052163;28;20049;-67
2023/03/03 02:03:08;;;;;;;29.58;18.52;;;;;;;;;;5052176;28;20048;-67
2023/03/03 02:05:34;;;;;;;34.37;20.13;;;;;;;;;;5045744;28;20387;-67
2023/03/03 02:08:01;;;;;;;32.80;19.10;;;;;;;;;;5051892;28;20041;-67
2023/03/03 02:10:29;;;;;;;22.60;13.38;;;;;;;;;;5050928;28;20049;-67
2023/03/03 02:12:56;;;;;;;51.30;35.28;;;;;;;;;;5051916;28;20049;-67
2023/03/03 02:15:24;;;;;;;26.88;16.90;;;;;;;;;;5052133;28;20078;-67
2023/03/03 02:17:50;;;;;;;;;;;;;;;;;;5052211;28;20051;-67
2023/03/03 02:20:39;;;;;;;25.98;14.60;;;;;;;;;;5052117;28;19925;-67
2023/03/03 02:23:07;;;;;;;31.08;17.30;;;;;;;;;;5051540;28;20488;-67
2023/03/03 02:25:38;;;;;;;26.80;16.35;;;;;;;;;;5051874;28;20076;-67
2023/03/03 02:28:04;;;;;;;13.95;8.82;;;;;;;;;;5050318;28;20056;-67
2023/03/03 02:30:35;;;;;;;8.20;6.35;;;;;;;;;;5051587;28;20045;-67
2023/03/03 02:33:02;;;;;;;8.38;6.70;;;;;;;;;;5051912;28;20047;-67
2023/03/03 02:35:28;;;;;;;9.50;6.40;;;;;;;;;;5051893;28;20049;-67
2023/03/03 02:38:00;;;;;;;8.07;7.03;;;;;;;;;;5051558;28;20099;-67
2023/03/03 02:40:28;;;;;;;11.02;7.70;;;;;;;;;;5051565;28;20460;-67
2023/03/03 02:42:55;;;;;;;;;;;;;;;;;;5052166;28;20143;-67
2023/03/03 02:45:21;;;;;;;36.13;24.38;;;;;;;;;;5051683;28;19925;-67
2023/03/03 02:47:49;;;;;;;29.70;18.67;;;;;;;;;;5051547;28;20053;-67
2023/03/03 02:50:16;;;;;;;42.47;24.00;;;;;;;;;;5049966;28;20053;-67
2023/03/03 02:52:42;;;;;;;12.18;7.30;;;;;;;;;;5051729;28;20045;-67
2023/03/03 02:55:08;;;;;;;8.10;6.47;;;;;;;;;;5051615;28;20049;-67
2023/03/03 02:57:35;;;;;;;26.90;15.10;;;;;;;;;;5051336;28;20887;-67
2023/03/03 03:00:01;;;;;;;9.60;7.00;;;;;;;;;;5051234;28;20064;-67
2023/03/03 03:02:27;;;;;;;12.35;7.63;;;;;;;;;;5051893;28;20048;-67
2023/03/03 03:04:54;;;;;;;17.23;10.15;;;;;;;;;;5051542;28;20079;-67
2023/03/03 03:07:20;;;;;;;38.00;19.15;;;;;;;;;;5051449;28;20037;-67
2023/03/03 03:09:46;;;;;;;16.90;10.52;;;;;;;;;;5051459;28;20057;-67
2023/03/03 03:12:14;;;;;;;12.50;8.18;;;;;;;;;;5051410;28;20064;-67
2023/03/03 03:14:41;;;;;;;14.88;10.05;;;;;;;;;;5051136;28;20084;-67
2023/03/03 03:17:07;;;;;;;52.47;27.55;;;;;;;;;;5051121;28;20059;-67
2023/03/03 03:19:33;;;;;;;56.92;30.17;;;;;;;;;;5051455;28;20131;-67
2023/03/03 03:22:00;;;;;;;33.08;19.27;;;;;;;;;;5051420;28;20408;-67
2023/03/03 03:24:26;;;;;;;100.93;60.13;;;;;;;;;;5051027;28;20503;-67
2023/03/03 03:26:52;;;;;;;32.17;20.98;;;;;;;;;;5051008;28;20499;-67
2023/03/03 03:29:19;;;;;;;18.40;12.45;;;;;;;;;;5051031;28;20400;-67
2023/03/03 03:31:45;;;;;;;10.05;7.25;;;;;;;;;;5051204;28;20056;-67
2023/03/03 03:34:12;;;;;;;8.43;7.00;;;;;;;;;;5051069;28;20045;-67
2023/03/03 03:36:38;;;;;;;10.30;7.10;;;;;;;;;;5051239;28;20051;-67
2023/03/03 03:39:05;;;;;;;10.98;7.70;;;;;;;;;;5050853;28;20107;-67
2023/03/03 03:41:31;;;;;;;10.00;7.85;;;;;;;;;;5052468;28;20045;-67
2023/03/03 03:43:58;;;;;;;18.23;11.45;;;;;;;;;;5054881;28;20489;-67
2023/03/03 03:46:24;;;;;;;23.73;14.13;;;;;;;;;;5054545;28;20049;-67
2023/03/03 03:48:50;;;;;;;18.80;11.63;;;;;;;;;;5054598;28;20063;-67
2023/03/03 03:51:17;;;;;;;12.98;8.82;;;;;;;;;;5054574;28;20048;-67
2023/03/03 03:53:44;;;;;;;13.35;9.23;;;;;;;;;;5054780;28;20041;-67
2023/03/03 03:56:10;;;;;;;24.27;16.03;;;;;;;;;;5054453;28;20084;-67
2023/03/03 03:58:39;;;;;;;18.20;13.07;;;;;;;;;;5054724;28;20693;-67
2023/03/03 04:01:06;;;;;;;25.30;15.35;;;;;;;;;;5054685;28;20056;-67
2023/03/03 04:03:33;;;;;;;29.35;17.52;;;;;;;;;;5054281;28;20052;-67
2023/03/03 04:05:59;;;;;;;28.48;17.08;;;;;;;;;;5054445;28;20080;-67
2023/03/03 04:08:26;;;;;;;21.52;13.05;;;;;;;;;;5054299;28;20159;-67
2023/03/03 04:10:52;;;;;;;39.15;22.15;;;;;;;;;;5054498;28;20041;-67
2023/03/03 04:13:18;;;;;;;57.63;27.40;;;;;;;;;;5054173;28;20060;-67
2023/03/03 04:15:45;;;;;;;56.15;27.92;;;;;;;;;;5054038;28;20485;-67
2023/03/03 04:18:11;;;;;;;44.53;21.77;;;;;;;;;;5054393;28;20107;-67
2023/03/03 04:20:38;;;;;;;34.47;18.27;;;;;;;;;;5052667;28;20049;-67
2023/03/03 04:23:05;;;;;;;29.27;15.55;;;;;;;;;;5054246;28;20087;-67
2023/03/03 04:25:31;;;;;;;16.33;9.38;;;;;;;;;;5054132;28;20489;-67
2023/03/03 04:27:58;;;;;;;12.10;7.47;;;;;;;;;;5053917;28;20041;-67
2023/03/03 04:30:25;;;;;;;11.60;7.82;;;;;;;;;;5054025;28;20048;-67
2023/03/03 04:32:52;;;;;;;11.70;8.35;;;;;;;;;;5053780;28;20128;-67
2023/03/03 04:35:18;;;;;;;8.75;6.63;;;;;;;;;;5053739;28;20040;-67
2023/03/03 04:37:45;;;;;;;8.98;6.72;;;;;;;;;;5053555;28;20052;-67
2023/03/03 04:40:11;;;;;;;7.03;5.78;;;;;;;;;;5053675;28;20514;-67
2023/03/03 04:42:38;;;;;;;7.43;5.53;;;;;;;;;;5053690;28;20080;-67
2023/03/03 04:45:04;;;;;;;7.75;5.63;;;;;;;;;;5053699;28;20076;-67
2023/03/03 04:47:31;;;;;;;7.03;5.40;;;;;;;;;;5053583;28;20045;-67
2023/03/03 04:49:57;;;;;;;6.47;5.75;;;;;;;;;;5053242;28;20064;-67
2023/03/03 04:52:24;;;;;;;6.45;5.57;;;;;;;;;;5053384;28;20045;-68
2023/03/03 04:54:50;;;;;;;8.85;5.63;;;;;;;;;;5053645;28;20048;-68
2023/03/03 04:57:16;;;;;;;6.03;5.32;;;;;;;;;;5053600;28;20053;-67
2023/03/03 04:59:43;;;;;;;10.10;5.68;;;;;;;;;;5053542;28;20052;-68
2023/03/03 05:02:09;;;;;;;9.93;5.55;;;;;;;;;;5053230;28;20053;-67
2023/03/03 05:04:36;;;;;;;6.28;5.47;;;;;;;;;;5053179;28;20052;-68
2023/03/03 05:07:02;;;;;;;8.93;5.82;;;;;;;;;;5053330;28;20088;-67
2023/03/03 05:09:29;;;;;;;8.40;5.68;;;;;;;;;;5053210;28;20040;-67
2023/03/03 05:11:55;;;;;;;8.88;6.03;;;;;;;;;;5053146;28;20055;-67
2023/03/03 05:14:22;;;;;;;6.55;5.88;;;;;;;;;;5053236;28;20438;-67
2023/03/03 05:16:48;;;;;;;6.80;5.18;;;;;;;;;;5053270;28;20128;-67
2023/03/03 05:19:14;;;;;;;6.40;5.80;;;;;;;;;;5052898;28;20045;-67
2023/03/03 05:21:41;;;;;;;8.10;5.63;;;;;;;;;;5053190;28;20140;-68
2023/03/03 05:24:11;;;;;;;8.02;5.97;;;;;;;;;;5052749;28;20056;-67
2023/03/03 05:26:38;;;;;;;7.68;6.00;;;;;;;;;;5052764;28;20080;-67
2023/03/03 05:29:05;;;;;;;7.57;6.13;;;;;;;;;;5052645;28;20051;-67
2023/03/03 05:31:32;;;;;;;9.07;6.20;;;;;;;;;;5052657;28;20051;-67
2023/03/03 05:33:58;;;;;;;8.50;5.97;;;;;;;;;;5052687;28;20557;-67
2023/03/03 05:36:25;;;;;;;8.02;6.38;;;;;;;;;;5052831;28;20045;-67
2023/03/03 05:38:51;;;;;;;7.00;6.30;;;;;;;;;;5052861;28;20382;-67
2023/03/03 05:41:18;;;;;;;7.93;6.25;;;;;;;;;;5052527;28;20140;-67
2023/03/03 05:43:44;;;;;;;7.88;6.28;;;;;;;;;;5052570;28;20135;-67
2023/03/03 05:46:10;;;;;;;7.30;6.60;;;;;;;;;;5052603;28;20057;-67
2023/03/03 05:48:37;;;;;;;6.43;5.80;;;;;;;;;;5052345;28;20053;-67
2023/03/03 05:51:04;;;;;;;7.32;5.95;;;;;;;;;;5052268;28;20049;-67
2023/03/03 05:53:30;;;;;;;8.52;5.97;;;;;;;;;;5052269;28;20045;-67
2023/03/03 05:55:56;;;;;;;7.18;6.03;;;;;;;;;;5052261;28;20063;-67
2023/03/03 05:58:23;;;;;;;7.25;5.80;;;;;;;;;;5052128;28;20465;-67
2023/03/03 06:00:49;;;;;;;6.88;6.00;;;;;;;;;;5052366;28;20055;-67
2023/03/03 06:03:16;;;;;;;6.65;5.60;;;;;;;;;;5052078;28;20044;-68
2023/03/03 06:05:43;;;;;;;7.25;6.55;;;;;;;;;;5051854;28;20455;-67
2023/03/03 06:08:09;;;;;;;8.40;5.80;;;;;;;;;;5052039;28;20051;-67
2023/03/03 06:10:35;;;;;;;6.65;5.53;;;;;;;;;;5052282;28;20059;-68
2023/03/03 06:13:02;;;;;;;11.75;6.15;;;;;;;;;;5052033;28;20048;-68
2023/03/03 06:15:28;;;;;;;7.50;5.38;;;;;;;;;;5050793;28;20049;-68
2023/03/03 06:17:55;;;;;;;5.78;4.90;;;;;;;;;;5052142;28;20059;-67
2023/03/03 06:20:21;;;;;;;9.73;5.10;;;;;;;;;;5051953;28;20060;-67
2023/03/03 06:22:47;;;;;;;7.65;5.38;;;;;;;;;;5051988;28;20427;-67
2023/03/03 06:25:14;;;;;;;5.90;4.88;;;;;;;;;;5051978;28;20053;-67
2023/03/03 06:27:40;;;;;;;6.85;4.90;;;;;;;;;;5051626;28;20041;-67
2023/03/03 06:30:07;;;;;;;6.00;4.43;;;;;;;;;;5052047;28;20061;-67
2023/03/03 06:32:33;;;;;;;7.80;6.30;;;;;;;;;;5052042;28;20483;-68
2023/03/03 06:35:00;;;;;;;7.78;5.78;;;;;;;;;;5051690;28;20041;-67
2023/03/03 06:37:26;;;;;;;5.68;4.32;;;;;;;;;;5051665;28;20481;-67
2023/03/03 06:39:53;;;;;;;4.82;4.20;;;;;;;;;;5051795;28;20044;-67
2023/03/03 06:42:19;;;;;;;5.45;3.95;;;;;;;;;;5051581;28;20059;-67
2023/03/03 06:44:46;;;;;;;4.25;3.92;;;;;;;;;;5051889;28;20041;-67
2023/03/03 06:47:12;;;;;;;4.22;3.92;;;;;;;;;;5051858;28;20103;-67
2023/03/03 06:49:39;;;;;;;5.25;3.83;;;;;;;;;;5051222;28;20156;-68
2023/03/03 06:52:11;;;;;;;4.97;4.10;;;;;;;;;;5051761;28;20056;-68
2023/03/03 06:54:37;;;;;;;5.50;4.15;;;;;;;;;;5051702;28;20507;-67
2023/03/03 06:57:22;;;;;;;8.52;4.60;;;;;;;;;;5051695;28;20059;-67
2023/03/03 06:59:50;;;;;;;5.30;4.15;;;;;;;;;;5051660;28;20053;-68
2023/03/03 07:02:17;;;;;;;4.32;3.92;;;;;;;;;;5036810;28;20059;-68
2023/03/03 07:04:45;;;;;;;5.07;4.10;;;;;;;;;;5051482;28;20440;-68
2023/03/03 07:07:16;;;;;;;6.72;4.20;;;;;;;;;;5051301;28;20045;-68
2023/03/03 07:09:53;;;;;;;5.40;4.70;;;;;;;;;;5051539;28;20059;-68
2023/03/03 07:12:29;;;;;;;4.87;4.20;;;;;;;;;;5051322;28;20045;-67
2023/03/03 07:15:14;;;;;;;5.28;4.28;;;;;;;;;;5051383;28;20401;-67
2023/03/03 07:17:45;;;;;;;5.75;4.47;;;;;;;;;;5055133;28;20044;-68
2023/03/03 07:20:17;;;;;;;5.78;4.40;;;;;;;;;;5045817;28;20480;-67
2023/03/03 07:22:43;;;;;;;5.18;4.68;;;;;;;;;;5033621;28;20045;-68
2023/03/03 07:25:21;;;;;;;7.85;4.90;;;;;;;;;;5035137;28;20045;-69
2023/03/03 07:27:47;;;;;;;5.15;4.45;;;;;;;;;;5042193;28;20049;-68
2023/03/03 07:30:27;;;;;;;5.10;4.43;;;;;;;;;;5048213;28;20394;-67
2023/03/03 07:32:56;;;;;;;6.10;4.38;;;;;;;;;;5033468;28;20528;-67
2023/03/03 07:35:40;;;;;;;6.35;4.40;;;;;;;;;;5036837;28;20095;-67
2023/03/03 07:38:29;;;;;;;7.53;4.32;;;;;;;;;;5034182;28;20049;-67
2023/03/03 07:40:58;;;;;;;4.95;3.95;;;;;;;;;;5030940;28;20053;-69
2023/03/03 07:43:24;;;;;;;6.22;4.47;;;;;;;;;;5034650;28;20049;-66
2023/03/03 07:45:50;;;;;;;7.05;4.18;;;;;;;;;;5034836;28;20049;-68
2023/03/03 07:48:23;;;;;;;4.82;4.30;;;;;;;;;;5048904;28;20104;-67
2023/03/03 07:50:49;;;;;;;5.30;4.20;;;;;;;;;;5054819;28;20045;-68
2023/03/03 07:53:35;;;;;;;4.40;3.83;;;;;;;;;;5054553;28;20132;-67
2023/03/03 07:56:04;;;;;;;8.40;4.53;;;;;;;;;;5054705;28;20059;-67
2023/03/03 07:58:36;;;;;;;5.45;4.50;;;;;;;;;;5038822;28;20417;-68
2023/03/03 08:01:21;;;;;;;4.45;3.95;;;;;;;;;;5034390;28;20049;-68
2023/03/03 08:03:49;;;;;;;5.70;3.83;;;;;;;;;;5035781;28;20049;-67
2023/03/03 08:06:31;;;;;;;6.85;3.72;;;;;;;;;;5033945;28;20057;-67
2023/03/03 08:09:01;;;;;;;6.55;3.75;;;;;;;;;;5033835;28;20402;-67
2023/03/03 08:11:28;;;;;;;5.95;3.20;;;;;;;;;;5034059;28;20137;-68
2023/03/03 08:13:55;;;;;;;5.07;3.60;;;;;;;;;;5040073;28;20390;-68
2023/03/03 08:16:33;;;;;;;4.83;3.63;;;;;;;;;;5042533;28;20137;-68
2023/03/03 08:19:01;;;;;;;4.10;3.17;;;;;;;;;;5051955;28;20053;-67
2023/03/03 08:21:28;;;;;;;4.70;3.20;;;;;;;;;;5054169;28;20084;-67
2023/03/03 08:23:54;;;;;;;6.90;3.47;;;;;;;;;;5054049;28;20049;-67
2023/03/03 08:26:21;;;;;;;6.30;3.78;;;;;;;;;;5053945;28;20242;-67
2023/03/03 08:28:48;;;;;;;4.97;4.10;;;;;;;;;;5053512;28;20053;-67
2023/03/03 08:31:16;;;;;;;4.25;3.85;;;;;;;;;;5044653;28;20129;-67
2023/03/03 08:33:59;;;;;;;3.67;3.38;;;;;;;;;;5051841;28;20190;-67
2023/03/03 08:36:26;;;;;;;3.83;3.33;;;;;;;;;;5053789;28;20056;-67
2023/03/03 08:38:52;;;;;;;5.05;3.45;;;;;;;;;;5053353;28;20041;-67
2023/03/03 08:41:18;;;;;;;3.85;3.33;;;;;;;;;;5050328;28;20497;-67
2023/03/03 08:43:45;;;;;;;4.03;3.08;;;;;;;;;;5043087;28;20087;-67
2023/03/03 08:46:11;;;;;;;5.53;3.30;;;;;;;;;;5053790;28;20063;-67
2023/03/03 08:48:39;;;;;;;6.53;4.65;;;;;;;;;;5049429;28;20112;-67
2023/03/03 08:51:06;;;;;;;3.78;3.17;;;;;;;;;;5043695;28;20053;-67
2023/03/03 08:53:35;;;;;;;3.20;2.92;;;;;;;;;;5040123;28;20128;-67
2023/03/03 08:56:01;;;;;;;6.07;3.90;;;;;;;;;;5050798;28;20416;-67
2023/03/03 08:58:28;;;;;;;3.40;2.83;;;;;;;;;;5053437;28;20092;-68
2023/03/03 09:01:01;;;;;;;4.68;3.38;;;;;;;;;;5053695;28;20099;-67
2023/03/03 09:03:27;;;;;;;9.32;3.25;;;;;;;;;;5053315;28;20127;-67
2023/03/03 09:05:53;;;;;;;3.10;2.75;;;;;;;;;;5053249;28;20107;-67
2023/03/03 09:08:20;;;;;;;3.88;2.90;;;;;;;;;;5053019;28;20052;-67
2023/03/03 09:10:46;;;;;;;4.85;2.70;;;;;;;;;;5053425;28;20055;-67
2023/03/03 09:13:14;;;;;;;6.13;3.20;;;;;;;;;;5053090;28;20075;-67
2023/03/03 09:15:40;;;;;;;3.38;2.92;;;;;;;;;;5052924;28;20128;-67
2023/03/03 09:18:10;;;;;;;3.10;2.80;;;;;;;;;;5053480;28;20049;-67
2023/03/03 09:20:41;;;;;;;4.05;3.15;;;;;;;;;;5053217;28;20374;-67
2023/03/03 09:23:22;;;;;;;4.68;2.60;;;;;;;;;;5053223;28;20120;-67
2023/03/03 09:25:49;;;;;;;5.82;2.90;;;;;;;;;;5051648;28;20076;-67
2023/03/03 09:28:23;;;;;;;7.97;2.72;;;;;;;;;;5052798;28;20056;-67
2023/03/03 09:30:51;;;;;;;3.60;2.70;;;;;;;;;;5053054;28;20127;-67
2023/03/03 09:33:25;;;;;;;4.10;2.47;;;;;;;;;;5038776;28;20067;-67
2023/03/03 09:36:12;;;;;;;5.18;2.67;;;;;;;;;;5031970;28;20047;-67
2023/03/03 09:38:43;;;;;;;3.72;2.55;;;;;;;;;;5036856;28;20143;-67
2023/03/03 09:41:23;;;;;;;4.10;2.58;;;;;;;;;;5036941;28;20050;-67
2023/03/03 09:43:49;;;;;;;6.20;2.80;;;;;;;;;;5052193;28;20052;-67
2023/03/03 09:46:16;;;;;;;4.78;2.40;;;;;;;;;;5035383;28;20053;-67
2023/03/03 09:48:54;;;;;;;3.67;3.05;;;;;;;;;;5031813;28;20132;-67
2023/03/03 09:51:29;;;;;;;3.22;2.30;;;;;;;;;;5030630;28;20490;-67
2023/03/03 09:53:58;;;;;;;4.22;2.35;;;;;;;;;;5031578;28;20045;-67
2023/03/03 09:56:33;;;;;;;6.25;3.00;;;;;;;;;;5031712;28;20053;-67
2023/03/03 09:59:09;;;;;;;5.80;2.70;;;;;;;;;;5026624;28;20568;-67
2023/03/03 10:01:41;;;;;;;3.28;2.58;;;;;;;;;;5051810;28;20420;-67
2023/03/03 10:04:11;;;;;;;7.28;3.20;;;;;;;;;;5044316;28;20115;-67
2023/03/03 10:06:41;;;;;;;3.08;2.65;;;;;;;;;;5031102;28;20140;-67
2023/03/03 10:09:26;;;;;;;3.83;2.88;;;;;;;;;;5045191;28;20463;-67
2023/03/03 10:11:55;;;;;;;2.65;2.50;;;;;;;;;;5051820;28;20041;-67
2023/03/03 10:14:37;;;;;;;2.78;2.42;;;;;;;;;;5045508;28;20049;-67
2023/03/03 10:17:22;;;;;;;2.78;2.25;;;;;;;;;;5033316;28;20413;-67
2023/03/03 10:19:57;;;;;;;4.35;2.10;;;;;;;;;;5035806;28;20072;-67
2023/03/03 10:22:31;;;;;;;3.08;2.72;;;;;;;;;;5043879;28;20144;-67
2023/03/03 10:24:58;;;;;;;3.90;2.28;;;;;;;;;;5039894;28;20133;-67
2023/03/03 10:27:30;;;;;;;2.90;2.20;;;;;;;;;;5032874;28;20060;-66
2023/03/03 10:29:58;;;;;;;5.35;2.50;;;;;;;;;;5045631;28;20485;-66
2023/03/03 10:32:31;;;;;;;4.57;2.78;;;;;;;;;;5027861;28;20040;-66
2023/03/03 10:35:07;;;;;;;3.92;2.47;;;;;;;;;;5050515;28;20056;-66
2023/03/03 10:37:42;;;;;;;3.20;2.78;;;;;;;;;;5039209;28;20053;-66
2023/03/03 10:40:28;;;;;;;3.40;3.10;;;;;;;;;;5049575;28;20568;-66
2023/03/03 10:43:14;;;;;;;5.15;2.60;;;;;;;;;;5030455;28;20054;-66
2023/03/03 10:45:56;;;;;;;4.53;2.88;;;;;;;;;;5042906;28;20077;-66
2023/03/03 10:48:29;;;;;;;6.50;3.45;;;;;;;;;;5043769;28;20063;-66
2023/03/03 10:51:34;;;;;;;4.57;3.55;;;;;;;;;;5048215;28;20432;-66
2023/03/03 10:54:12;;;;;;;4.15;3.55;;;;;;;;;;5029713;28;20053;-66
2023/03/03 10:56:41;;;;;;;3.58;3.28;;;;;;;;;;5009882;28;20054;-66
2023/03/03 10:59:33;;;;;;;4.72;3.67;;;;;;;;;;5043451;28;20075;-66
2023/03/03 11:02:08;;;;;;;4.60;3.72;;;;;;;;;;5046244;28;20048;-66
2023/03/03 11:04:43;;;;;;;10.57;4.30;;;;;;;;;;5050967;28;20544;-66
2023/03/03 11:07:18;;;;;;;6.78;5.22;;;;;;;;;;5043398;28;20061;-66
2023/03/03 11:10:16;;;;;;;8.82;6.47;;;;;;;;;;5051365;28;20128;-66
2023/03/03 11:12:48;;;;;;;6.18;5.00;;;;;;;;;;5027084;28;20041;-66
2023/03/03 11:15:34;;;;;;;6.32;5.30;;;;;;;;;;5045053;28;20057;-66
2023/03/03 11:18:00;;;;;;;6.85;5.53;;;;;;;;;;5044593;28;20088;-66
2023/03/03 11:20:32;;;;;;;6.20;5.57;;;;;;;;;;5050595;28;20049;-66
2023/03/03 11:23:05;;;;;;;7.35;5.97;;;;;;;;;;5050793;28;20131;-66
2023/03/03 11:25:43;;;;;;;6.78;6.03;;;;;;;;;;5050684;28;20044;-66
2023/03/03 11:28:29;;;;;;;7.72;5.78;;;;;;;;;;5050912;28;20072;-65
2023/03/03 11:31:04;;;;;;;6.80;5.70;;;;;;;;;;5038493;28;20051;-66
2023/03/03 11:33:40;;;;;;;6.93;6.03;;;;;;;;;;5036709;28;20102;-65
2023/03/03 11:36:09;;;;;;;6.15;5.60;;;;;;;;;;5050420;28;20076;-65
2023/03/03 11:38:45;;;;;;;6.15;5.57;;;;;;;;;;5045116;28;20505;-66
2023/03/03 11:41:17;;;;;;;5.93;5.05;;;;;;;;;;5034637;28;20048;-66
2023/03/03 11:43:46;;;;;;;6.63;5.88;;;;;;;;;;5050740;28;20049;-67
2023/03/03 11:46:17;;;;;;;7.68;5.68;;;;;;;;;;5034347;28;20508;-66
2023/03/03 11:48:53;;;;;;;5.38;4.80;;;;;;;;;;5050290;28;20063;-65
2023/03/03 11:51:26;;;;;;;6.43;5.05;;;;;;;;;;5050182;28;20089;-66
2023/03/03 11:53:58;;;;;;;6.57;5.90;;;;;;;;;;5050739;28;20045;-66
2023/03/03 11:56:55;;;;;;;6.75;5.80;;;;;;;;;;5050421;28;20055;-66
2023/03/03 11:59:24;;;;;;;7.57;5.40;;;;;;;;;;5029547;28;20063;-66
2023/03/03 12:01:56;;;;;;;6.97;4.90;;;;;;;;;;5030092;28;20049;-66
2023/03/03 12:04:33;;;;;;;6.00;5.40;;;;;;;;;;5037733;28;20408;-66
2023/03/03 12:07:08;;;;;;;6.25;5.10;;;;;;;;;;5051995;28;20132;-66
2023/03/03 12:10:06;;;;;;;6.35;4.80;;;;;;;;;;5027593;28;20465;-66
2023/03/03 12:12:52;;;;;;;5.72;4.95;;;;;;;;;;5045937;28;20068;-66
2023/03/03 12:15:38;;;;;;;5.22;4.55;;;;;;;;;;5046839;28;20061;-66
2023/03/03 12:18:07;;;;;;;4.63;4.22;;;;;;;;;;5043802;28;20049;-66
2023/03/03 12:20:52;;;;;;;5.47;4.32;;;;;;;;;;5049428;28;20048;-66
2023/03/03 12:23:25;;;;;;;4.93;4.22;;;;;;;;;;5043068;28;20489;-66
2023/03/03 12:26:02;;;;;;;6.03;4.03;;;;;;;;;;5050887;28;20137;-66
2023/03/03 12:28:37;;;;;;;5.22;4.00;;;;;;;;;;5051147;28;20484;-67
2023/03/03 12:31:09;;;;;;;5.88;3.45;;;;;;;;;;5053880;28;20477;-66
2023/03/03 12:33:55;;;;;;;3.83;3.50;;;;;;;;;;5049197;28;20048;-66
2023/03/03 12:36:34;;;;;;;4.10;3.55;;;;;;;;;;5052214;28;20505;-66
2023/03/03 12:39:18;;;;;;;4.43;3.88;;;;;;;;;;5039392;28;20053;-66
2023/03/03 12:42:03;;;;;;;3.92;3.30;;;;;;;;;;5053618;28;20048;-66
2023/03/03 12:44:49;;;;;;;4.53;2.92;;;;;;;;;;5053533;28;20076;-66
2023/03/03 12:47:20;;;;;;;4.80;2.95;;;;;;;;;;5049269;28;20048;-66
2023/03/03 12:49:57;;;;;;;4.25;2.88;;;;;;;;;;5037354;28;20144;-66
2023/03/03 12:52:51;;;;;;;4.07;2.80;;;;;;;;;;5041603;28;20037;-66
2023/03/03 12:55:43;;;;;;;2.97;2.60;;;;;;;;;;5044532;28;20048;-66
2023/03/03 12:58:38;;;;;;;4.38;2.92;;;;;;;;;;5035561;28;20056;-66
2023/03/03 13:01:08;;;;;;;2.80;2.45;;;;;;;;;;5045850;28;20045;-66
2023/03/03 13:03:37;;;;;;;2.85;2.50;;;;;;;;;;5050828;28;20049;-66
2023/03/03 13:06:28;;;;;;;2.83;2.40;;;;;;;;;;5053027;28;20048;-66
2023/03/03 13:08:56;;;;;;;3.13;2.45;;;;;;;;;;5052712;28;20052;-66
2023/03/03 13:11:27;;;;;;;3.60;3.05;;;;;;;;;;5051431;28;20040;-66
2023/03/03 13:14:12;;;;;;;2.67;2.47;;;;;;;;;;5052456;28;20132;-66
2023/03/03 13:16:52;;;;;;;3.58;2.47;;;;;;;;;;5051564;28;20071;-66
2023/03/03 13:19:51;;;;;;;3.47;2.55;;;;;;;;;;5052535;28;20558;-66
2023/03/03 13:22:37;;;;;;;2.35;2.25;;;;;;;;;;5029765;28;20155;-66
2023/03/03 13:25:23;;;;;;;2.97;2.27;;;;;;;;;;5052394;28;20048;-66
2023/03/03 13:27:51;;;;;;;4.20;2.25;;;;;;;;;;5052405;28;20056;-66
2023/03/03 13:30:17;;;;;;;;;;;;;;;;;;5052692;28;20559;-66
2023/03/03 13:32:49;;;;;;;3.38;2.58;;;;;;;;;;5052250;28;20011;-66
2023/03/03 13:35:15;;;;;;;3.38;2.40;;;;;;;;;;5052587;28;20071;-66
2023/03/03 13:37:43;;;;;;;5.57;2.80;;;;;;;;;;5052287;28;20045;-66
2023/03/03 13:40:13;;;;;;;4.28;2.78;;;;;;;;;;5052423;28;20140;-66
2023/03/03 13:42:42;;;;;;;4.35;3.95;;;;;;;;;;5052057;28;20056;-66
2023/03/03 13:45:22;;;;;;;4.55;3.03;;;;;;;;;;5052411;28;20108;-66
2023/03/03 13:48:00;;;;;;;3.05;2.70;;;;;;;;;;5052213;28;20061;-66
2023/03/03 13:50:32;;;;;;;5.20;4.03;;;;;;;;;;5051802;28;20053;-66
2023/03/03 13:53:01;;;;;;;2.72;2.53;;;;;;;;;;5052067;28;20479;-66
2023/03/03 13:55:28;;;;;;;3.10;2.83;;;;;;;;;;5052239;28;20049;-66
2023/03/03 13:57:54;;;;;;;3.33;2.60;;;;;;;;;;5051699;28;20041;-66
2023/03/03 14:00:33;;;;;;;2.35;2.15;;;;;;;;;;5051782;28;20057;-66
2023/03/03 14:03:18;;;;;;;4.55;4.13;;;;;;;;;;5051924;28;20516;-66
2023/03/03 14:05:49;;;;;;;3.28;2.97;;;;;;;;;;5049713;28;20594;-66
2023/03/03 14:08:34;;;;;;;2.83;2.63;;;;;;;;;;5051459;28;20534;-66
2023/03/03 14:11:10;;;;;;;2.17;2.08;;;;;;;;;;5051548;28;20477;-66
2023/03/03 14:13:48;;;;;;;4.10;2.70;;;;;;;;;;5051515;28;20041;-66
2023/03/03 14:16:14;;;;;;;;;;;;;;;;;;5052345;28;20044;-65
2023/03/03 14:18:51;;;;;;;4.57;2.67;;;;;;;;;;5051739;28;19970;-65
2023/03/03 14:21:22;;;;;;;2.55;1.95;;;;;;;;;;5051703;28;20059;-66
2023/03/03 14:24:00;;;;;;;2.88;2.63;;;;;;;;;;5051449;28;20049;-66
2023/03/03 14:26:27;;;;;;;3.53;3.13;;;;;;;;;;5050843;28;20056;-66
2023/03/03 14:29:03;;;;;;;3.10;2.80;;;;;;;;;;5051346;28;20063;-65
2023/03/03 14:31:42;;;;;;;2.67;2.47;;;;;;;;;;5047444;28;20052;-66
2023/03/03 14:34:08;;;;;;;3.63;2.22;;;;;;;;;;5029783;28;20516;-66
2023/03/03 14:36:38;;;;;;;2.28;2.00;;;;;;;;;;5031367;28;20041;-65
2023/03/03 14:39:25;;;;;;;2.70;2.30;;;;;;;;;;5032542;28;20076;-66
2023/03/03 14:41:52;;;;;;;2.70;2.50;;;;;;;;;;5044183;28;20059;-66
2023/03/03 14:44:28;;;;;;;2.60;2.17;;;;;;;;;;5050465;28;20469;-66
2023/03/03 14:47:09;;;;;;;3.13;2.20;;;;;;;;;;5039238;28;20128;-66
2023/03/03 14:49:37;;;;;;;2.42;2.25;;;;;;;;;;5036447;28;20052;-66
2023/03/03 14:52:16;;;;;;;2.05;1.75;;;;;;;;;;5043247;28;20132;-66
2023/03/03 14:54:46;;;;;;;3.38;2.10;;;;;;;;;;5046592;28;20083;-65
2023/03/03 14:57:45;;;;;;;1.90;1.70;;;;;;;;;;5037143;28;20120;-66
2023/03/03 15:00:12;;;;;;;2.00;1.73;;;;;;;;;;5018930;28;20049;-65
2023/03/03 15:02:51;;;;;;;4.50;3.28;;;;;;;;;;5030319;28;20080;-66
2023/03/03 15:05:20;;;;;;;4.45;2.42;;;;;;;;;;5030012;28;20120;-66